createdAt,value
2022-12-14T00:00:18.213Z,-7.70
2022-12-14T00:02:45.318Z,-8.10
2022-12-14T00:05:12.388Z,-7.80
2022-12-14T00:07:39.404Z,-8.00
2022-12-14T00:10:06.844Z,-8.00
2022-12-14T00:12:33.946Z,-7.60
2022-12-14T00:15:01.111Z,-7.80
2022-12-14T00:17:28.981Z,-8.10
2022-12-14T00:19:56.277Z,-7.60
2022-12-14T00:22:23.248Z,-7.60
2022-12-14T00:24:50.377Z,-7.50
2022-12-14T00:27:17.459Z,-7.60
2022-12-14T00:29:45.084Z,-7.40
2022-12-14T00:32:12.123Z,-7.60
2022-12-14T00:34:39.164Z,-7.50
2022-12-14T00:37:06.168Z,-7.40
2022-12-14T00:39:33.177Z,-7.60
2022-12-14T00:42:00.150Z,-7.60
2022-12-14T00:44:27.229Z,-7.60
2022-12-14T00:46:54.249Z,-7.60
2022-12-14T00:49:21.240Z,-7.60
2022-12-14T00:51:48.252Z,-7.90
2022-12-14T00:54:15.347Z,-7.80
2022-12-14T00:56:42.320Z,-7.80
2022-12-14T00:59:09.339Z,-7.90
2022-12-14T01:01:36.791Z,-7.90
2022-12-14T01:04:19.847Z,-8.00
2022-12-14T01:06:49.795Z,-7.90
2022-12-14T01:09:19.321Z,-8.00
2022-12-14T01:11:46.724Z,-8.00
2022-12-14T01:14:17.401Z,-8.20
2022-12-14T01:16:45.374Z,-8.00
2022-12-14T01:19:14.519Z,-8.10
2022-12-14T01:21:42.267Z,-8.10
2022-12-14T01:24:09.974Z,-8.00
2022-12-14T01:26:39.842Z,-8.20
2022-12-14T01:29:07.843Z,-8.10
2022-12-14T01:31:38.065Z,-8.00
2022-12-14T01:34:05.574Z,-7.90
2022-12-14T01:36:35.544Z,-7.90
2022-12-14T01:39:09.643Z,-8.00
2022-12-14T01:41:43.957Z,-7.90
2022-12-14T01:44:10.943Z,-7.80
2022-12-14T01:46:53.821Z,-7.70
2022-12-14T01:49:38.829Z,-7.80
2022-12-14T01:52:39.940Z,-7.60
2022-12-14T01:55:18.440Z,-7.80
2022-12-14T01:58:16.566Z,-7.90
2022-12-14T02:00:45.460Z,-7.70
2022-12-14T02:03:27.379Z,-7.70
2022-12-14T02:06:03.102Z,-7.20
2022-12-14T02:08:31.365Z,-7.50
2022-12-14T02:10:59.150Z,-7.50
2022-12-14T02:13:34.278Z,-7.20
2022-12-14T02:16:01.598Z,-7.40
2022-12-14T02:18:31.768Z,-7.30
2022-12-14T02:21:25.151Z,-7.20
2022-12-14T02:24:17.052Z,-7.20
2022-12-14T02:27:13.050Z,-7.10
2022-12-14T02:30:19.791Z,-7.00
2022-12-14T02:32:54.982Z,-7.00
2022-12-14T02:35:40.778Z,-7.00
2022-12-14T02:38:38.738Z,-6.90
2022-12-14T02:41:20.712Z,-6.80
2022-12-14T02:43:56.953Z,-6.70
2022-12-14T02:46:40.024Z,-6.60
2022-12-14T02:49:15.104Z,-6.80
2022-12-14T02:52:13.184Z,-6.90
2022-12-14T02:54:59.736Z,-6.90
2022-12-14T02:57:36.254Z,-6.60
2022-12-14T03:00:06.568Z,-6.60
2022-12-14T03:02:43.920Z,-6.80
2022-12-14T03:05:11.937Z,-6.70
2022-12-14T03:08:04.914Z,-6.30
2022-12-14T03:10:57.444Z,-6.60
2022-12-14T03:13:36.728Z,-6.40
2022-12-14T03:16:49.683Z,-6.40
2022-12-14T03:19:38.879Z,-6.30
2022-12-14T03:22:20.746Z,-5.90
2022-12-14T03:24:56.655Z,-5.90
2022-12-14T03:27:32.898Z,-6.20
2022-12-14T03:30:13.521Z,-5.90
2022-12-14T03:32:48.805Z,-6.00
2022-12-14T03:35:28.487Z,-6.10
2022-12-14T03:38:23.591Z,-6.10
2022-12-14T03:40:56.235Z,-5.90
2022-12-14T03:43:52.378Z,-6.00
2022-12-14T03:47:02.623Z,-5.50
2022-12-14T03:50:00.363Z,-6.00
2022-12-14T03:52:45.218Z,-5.50
2022-12-14T03:55:23.540Z,-5.70
2022-12-14T03:58:25.968Z,-5.50
2022-12-14T04:01:30.706Z,-5.50
2022-12-14T04:04:14.716Z,-5.60
2022-12-14T04:07:02.272Z,-5.50
2022-12-14T04:09:49.312Z,-5.30
2022-12-14T04:12:54.047Z,-5.50
2022-12-14T04:15:52.135Z,-5.50
2022-12-14T04:18:59.270Z,-5.50
2022-12-14T04:21:38.096Z,-5.40
2022-12-14T04:24:45.380Z,-5.30
2022-12-14T04:27:43.588Z,-5.40
2022-12-14T04:30:13.372Z,-5.40
2022-12-14T04:33:26.159Z,-5.20
2022-12-14T04:35:58.874Z,-5.30
2022-12-14T04:38:35.183Z,-5.00
2022-12-14T04:41:11.841Z,-5.30
2022-12-14T04:43:49.155Z,-5.10
2022-12-14T04:46:24.131Z,-5.10
2022-12-14T04:49:32.325Z,-5.10
2022-12-14T04:52:12.198Z,-4.90
2022-12-14T04:54:56.660Z,-4.90
2022-12-14T04:57:37.350Z,-4.90
2022-12-14T05:00:06.394Z,-4.80
2022-12-14T05:03:03.917Z,-5.00
2022-12-14T05:05:46.182Z,-4.90
2022-12-14T05:08:57.651Z,-4.50
2022-12-14T05:12:00.683Z,-5.00
2022-12-14T05:14:39.620Z,-4.90
2022-12-14T05:17:09.310Z,-4.60
2022-12-14T05:19:38.141Z,-4.50
2022-12-14T05:22:08.434Z,-4.60
2022-12-14T05:24:35.474Z,-4.60
2022-12-14T05:27:02.698Z,-4.60
2022-12-14T05:29:29.832Z,-4.60
2022-12-14T05:31:57.064Z,-4.10
2022-12-14T05:34:24.461Z,-4.00
2022-12-14T05:36:51.599Z,-3.70
2022-12-14T05:39:18.740Z,-3.90
2022-12-14T05:41:46.016Z,-3.70
2022-12-14T05:44:13.396Z,-3.60
2022-12-14T05:46:40.610Z,-3.80
2022-12-14T05:49:07.895Z,-3.30
2022-12-14T05:51:35.234Z,-3.20
2022-12-14T05:54:02.446Z,-2.90
2022-12-14T05:56:29.535Z,-3.20
2022-12-14T05:58:56.820Z,-2.90
2022-12-14T06:01:24.093Z,-2.70
2022-12-14T06:03:55.631Z,-2.80
2022-12-14T06:06:26.137Z,-2.60
2022-12-14T06:08:53.431Z,-2.70
2022-12-14T06:11:23.576Z,-2.70
2022-12-14T06:13:51.511Z,-2.80
2022-12-14T06:16:24.698Z,-2.90
2022-12-14T06:18:59.072Z,-3.00
2022-12-14T06:21:33.057Z,-2.80
2022-12-14T06:24:00.642Z,-2.60
2022-12-14T06:26:30.344Z,-2.90
2022-12-14T06:28:58.909Z,-2.90
2022-12-14T06:31:32.753Z,-3.10
2022-12-14T06:34:03.123Z,-3.00
2022-12-14T06:36:34.446Z,-3.10
2022-12-14T06:39:07.819Z,-3.00
2022-12-14T06:41:35.095Z,-3.20
2022-12-14T06:44:08.289Z,-3.10
2022-12-14T06:46:36.455Z,-3.10
2022-12-14T06:49:06.083Z,-2.70
2022-12-14T06:51:39.481Z,-3.20
2022-12-14T06:54:07.762Z,-3.10
2022-12-14T06:56:35.438Z,-3.20
2022-12-14T06:59:02.694Z,-3.00
2022-12-14T07:01:29.957Z,-2.90
2022-12-14T07:03:59.637Z,-2.80
2022-12-14T07:06:32.040Z,-2.70
2022-12-14T07:09:00.705Z,-2.80
2022-12-14T07:11:30.813Z,-2.70
2022-12-14T07:14:00.972Z,-2.80
2022-12-14T07:16:29.654Z,-2.70
2022-12-14T07:19:00.341Z,-2.50
2022-12-14T07:21:28.232Z,-2.60
2022-12-14T07:23:55.670Z,-2.70
2022-12-14T07:26:28.099Z,-2.70
2022-12-14T07:28:57.624Z,-2.50
2022-12-14T07:31:28.320Z,-2.70
2022-12-14T07:34:01.308Z,-2.50
2022-12-14T07:36:30.283Z,-2.80
2022-12-14T07:38:57.665Z,-2.60
2022-12-14T07:41:32.103Z,-2.30
2022-12-14T07:44:01.427Z,-2.50
2022-12-14T07:46:32.462Z,-2.40
2022-12-14T07:49:01.388Z,-2.40
2022-12-14T07:51:36.531Z,-2.30
2022-12-14T07:54:05.981Z,-2.30
2022-12-14T07:56:38.231Z,-2.20
2022-12-14T07:59:08.614Z,-2.30
2022-12-14T08:01:37.983Z,-2.10
2022-12-14T08:04:09.075Z,-2.30
2022-12-14T08:06:37.402Z,-1.80
2022-12-14T08:09:06.640Z,-1.80
2022-12-14T08:11:34.171Z,-2.00
2022-12-14T08:14:05.348Z,-2.00
2022-12-14T08:16:33.431Z,-1.80
2022-12-14T08:19:01.630Z,-1.60
2022-12-14T08:21:30.445Z,-1.80
2022-12-14T08:23:59.020Z,-1.40
2022-12-14T08:26:34.888Z,-1.90
2022-12-14T08:29:04.322Z,-1.70
2022-12-14T08:31:32.194Z,-1.40
2022-12-14T08:34:07.518Z,-1.60
2022-12-14T08:36:35.225Z,-1.50
2022-12-14T08:39:06.917Z,-1.40
2022-12-14T08:41:34.458Z,-1.70
2022-12-14T08:44:03.792Z,-1.80
2022-12-14T08:46:34.516Z,-1.90
2022-12-14T08:49:02.118Z,-1.60
2022-12-14T08:51:29.733Z,-1.60
2022-12-14T08:53:59.084Z,-1.60
2022-12-14T08:56:28.660Z,-1.60
2022-12-14T08:58:57.663Z,-1.60
2022-12-14T09:01:33.362Z,-1.60
2022-12-14T09:04:08.433Z,-1.40
2022-12-14T09:06:39.657Z,-1.50
2022-12-14T09:09:15.652Z,-1.50
2022-12-14T09:11:44.959Z,-1.70
2022-12-14T09:14:12.586Z,-1.40
2022-12-14T09:16:40.455Z,-1.30
2022-12-14T09:19:07.797Z,-1.30
2022-12-14T09:21:35.027Z,-1.40
2022-12-14T09:24:02.210Z,-1.30
2022-12-14T09:26:30.024Z,-1.50
2022-12-14T09:28:58.233Z,-1.50
2022-12-14T09:31:28.016Z,-1.30
2022-12-14T09:33:55.687Z,-1.60
2022-12-14T09:36:28.720Z,-1.70
2022-12-14T09:38:57.877Z,-1.70
2022-12-14T09:41:34.025Z,-1.50
2022-12-14T09:44:56.500Z,-1.20
2022-12-14T09:47:45.269Z,-1.30
2022-12-14T09:50:18.558Z,-1.10
2022-12-14T09:52:51.306Z,-1.30
2022-12-14T09:55:36.239Z,-1.10
2022-12-14T09:58:09.905Z,-1.20
2022-12-14T10:00:53.643Z,-1.70
2022-12-14T10:04:08.937Z,-1.60
2022-12-14T10:06:52.298Z,-1.30
2022-12-14T10:09:54.885Z,-1.50
2022-12-14T10:13:07.804Z,-1.30
2022-12-14T10:15:54.880Z,-1.40
2022-12-14T10:21:31.578Z,-1.10
2022-12-14T10:24:03.593Z,-1.70
2022-12-14T10:26:46.418Z,-1.10
2022-12-14T10:29:41.502Z,-1.00
2022-12-14T10:32:38.451Z,-1.30
2022-12-14T10:35:30.027Z,-1.20
2022-12-14T10:38:35.080Z,-1.10
2022-12-14T10:41:35.633Z,-1.10
2022-12-14T10:44:14.443Z,-1.10
2022-12-14T10:47:02.861Z,-1.10
2022-12-14T10:49:44.852Z,-1.10
2022-12-14T10:52:19.222Z,-1.20
2022-12-14T10:55:24.904Z,-1.00
2022-12-14T10:57:51.982Z,-1.00
2022-12-14T11:00:23.416Z,-0.60
2022-12-14T11:02:55.698Z,-0.90
2022-12-14T11:05:40.060Z,-0.60
2022-12-14T11:08:08.956Z,-0.50
2022-12-14T11:10:39.724Z,-0.80
2022-12-14T11:13:21.728Z,-0.70
2022-12-14T11:15:53.067Z,-0.90
2022-12-14T11:18:20.256Z,-0.90
2022-12-14T11:21:05.305Z,-0.70
2022-12-14T11:23:42.436Z,-1.00
2022-12-14T11:26:25.949Z,-1.10
2022-12-14T11:28:55.836Z,-0.70
2022-12-14T11:31:31.204Z,-0.70
2022-12-14T11:34:01.611Z,-0.80
2022-12-14T11:36:42.433Z,-0.60
2022-12-14T11:39:15.194Z,-0.50
2022-12-14T11:41:58.851Z,-0.70
2022-12-14T11:44:30.950Z,-0.80
2022-12-14T11:46:58.059Z,-0.70
2022-12-14T11:49:45.244Z,-0.80
2022-12-14T11:52:20.036Z,-0.80
2022-12-14T11:55:09.305Z,-1.00
2022-12-14T11:58:17.281Z,-0.90
2022-12-14T12:00:59.529Z,-0.60
2022-12-14T12:03:59.538Z,-0.60
2022-12-14T12:06:29.951Z,-0.50
2022-12-14T12:09:01.905Z,-0.70
2022-12-14T12:11:34.958Z,-0.90
2022-12-14T12:14:16.203Z,-0.70
2022-12-14T12:16:45.282Z,-0.50
2022-12-14T12:19:25.232Z,-0.90
2022-12-14T12:21:54.991Z,-0.50
2022-12-14T12:25:16.720Z,-0.50
2022-12-14T12:27:42.001Z,-0.40
2022-12-14T12:30:28.760Z,-0.50
2022-12-14T12:33:07.635Z,-0.60
2022-12-14T12:35:52.555Z,-0.50
2022-12-14T12:38:59.151Z,-0.80
2022-12-14T12:41:32.062Z,-0.50
2022-12-14T12:44:19.214Z,-0.80
2022-12-14T12:49:51.056Z,-0.80
2022-12-14T12:52:32.382Z,-0.70
2022-12-14T12:55:10.378Z,-0.70
2022-12-14T12:57:45.575Z,-1.00
2022-12-14T13:00:25.675Z,-0.80
2022-12-14T13:03:23.153Z,-0.70
2022-12-14T13:05:54.289Z,-0.90
2022-12-14T13:08:33.590Z,-1.00
2022-12-14T13:11:25.516Z,-0.60
2022-12-14T13:14:13.966Z,-0.80
2022-12-14T13:16:42.309Z,-0.80
2022-12-14T13:19:49.829Z,-0.80
2022-12-14T13:22:25.626Z,-0.80
2022-12-14T13:24:58.962Z,-0.80
2022-12-14T13:28:19.985Z,-0.60
2022-12-14T13:30:59.165Z,-0.70
2022-12-14T13:34:08.777Z,-0.80
2022-12-14T13:37:42.698Z,-0.80
2022-12-14T13:40:40.172Z,-0.40
2022-12-14T13:43:54.581Z,-0.60
2022-12-14T13:46:27.447Z,-0.70
2022-12-14T13:49:20.018Z,-0.60
2022-12-14T13:51:50.710Z,-0.40
2022-12-14T13:54:27.869Z,-0.70
2022-12-14T13:57:21.275Z,-0.40
2022-12-14T13:59:56.109Z,-0.70
2022-12-14T14:02:32.612Z,-0.70
2022-12-14T14:05:22.103Z,-0.70
2022-12-14T14:08:30.368Z,-0.70
2022-12-14T14:11:38.789Z,-0.70
2022-12-14T14:14:28.918Z,-0.60
2022-12-14T14:17:02.427Z,-0.70
2022-12-14T14:19:40.416Z,-0.70
2022-12-14T14:22:26.563Z,-0.70
2022-12-14T14:25:12.537Z,-0.60
2022-12-14T14:27:50.946Z,-0.70
2022-12-14T14:30:36.925Z,-0.60
2022-12-14T14:33:46.124Z,-0.80
2022-12-14T14:36:36.170Z,-0.50
2022-12-14T14:42:27.191Z,-0.60
2022-12-14T14:45:08.075Z,-0.60
2022-12-14T14:47:40.746Z,-0.60
2022-12-14T14:50:17.031Z,-0.50
2022-12-14T14:52:46.461Z,-0.80
2022-12-14T14:58:26.575Z,-0.70
2022-12-14T15:01:25.140Z,-0.60
2022-12-14T15:04:16.971Z,-0.60
2022-12-14T15:08:22.871Z,-0.60
2022-12-14T15:10:53.330Z,-0.60
2022-12-14T15:13:48.318Z,-0.50
2022-12-14T15:16:29.547Z,-0.40
2022-12-14T15:19:26.537Z,-0.40
2022-12-14T15:22:02.661Z,-0.50
2022-12-14T15:24:39.016Z,-0.50
2022-12-14T15:27:29.201Z,-0.50
2022-12-14T15:30:26.977Z,-0.40
2022-12-14T15:33:17.374Z,-0.60
2022-12-14T15:35:49.612Z,-0.50
2022-12-14T15:38:32.373Z,-0.30
2022-12-14T15:41:14.961Z,-0.40
2022-12-14T15:43:53.757Z,-0.50
2022-12-14T15:46:35.996Z,-0.50
2022-12-14T15:49:10.741Z,-0.80
2022-12-14T15:51:44.267Z,-0.50
2022-12-14T15:54:26.249Z,-0.80
2022-12-14T15:56:59.973Z,-0.60
2022-12-14T15:59:35.214Z,-0.20
2022-12-14T16:02:20.570Z,-0.30
2022-12-14T16:04:48.454Z,-0.70
2022-12-14T16:07:42.872Z,-0.30
2022-12-14T16:10:35.253Z,-0.60
2022-12-14T16:13:23.329Z,-0.40
2022-12-14T16:15:52.941Z,-0.10
2022-12-14T16:18:21.518Z,-0.30
2022-12-14T16:21:04.019Z,-0.10
2022-12-14T16:23:39.342Z,-0.10
2022-12-14T16:26:16.613Z,-0.50
2022-12-14T16:28:44.434Z,-0.50
2022-12-14T16:31:28.406Z,-0.50
2022-12-14T16:34:15.726Z,-0.50
2022-12-14T16:36:51.968Z,-0.50
2022-12-14T16:39:44.362Z,-0.60
2022-12-14T16:42:24.887Z,-0.60
2022-12-14T16:44:57.232Z,-0.90
2022-12-14T16:47:34.483Z,-0.30
2022-12-14T16:50:57.610Z,-0.40
2022-12-14T16:53:39.282Z,-0.30
2022-12-14T16:56:25.018Z,-0.60
2022-12-14T16:59:04.315Z,-0.50
2022-12-14T17:01:45.042Z,-0.70
2022-12-14T17:04:15.603Z,-0.70
2022-12-14T17:06:54.889Z,-0.50
2022-12-14T17:09:27.531Z,-0.90
2022-12-14T17:12:16.470Z,-0.90
2022-12-14T17:14:49.739Z,-0.90
2022-12-14T17:17:24.780Z,-1.00
2022-12-14T17:19:52.116Z,-1.10
2022-12-14T17:22:27.096Z,-1.00
2022-12-14T17:24:54.659Z,-1.10
2022-12-14T17:27:22.623Z,-1.10
2022-12-14T17:29:51.115Z,-0.70
2022-12-14T17:32:24.613Z,-1.10
2022-12-14T17:34:51.713Z,-1.00
2022-12-14T17:37:22.993Z,-0.90
2022-12-14T17:39:50.878Z,-1.10
2022-12-14T17:42:21.834Z,-1.20
2022-12-14T17:44:56.748Z,-1.00
2022-12-14T17:47:24.599Z,-1.00
2022-12-14T17:49:52.101Z,-1.20
2022-12-14T17:52:28.222Z,-1.10
2022-12-14T17:54:55.524Z,-1.10
2022-12-14T17:57:25.137Z,-1.20
2022-12-14T18:00:11.634Z,-1.20
2022-12-14T18:02:40.054Z,-1.20
2022-12-14T18:05:17.999Z,-1.10
2022-12-14T18:07:45.420Z,-1.20
2022-12-14T18:10:18.136Z,-1.20
2022-12-14T18:12:45.341Z,-1.00
2022-12-14T18:15:31.814Z,-1.10
2022-12-14T18:17:58.927Z,-1.20
2022-12-14T18:20:26.331Z,-1.10
2022-12-14T18:22:54.218Z,-1.10
2022-12-14T18:25:31.896Z,-1.10
2022-12-14T18:28:02.231Z,-1.10
2022-12-14T18:30:36.802Z,-1.20
2022-12-14T18:33:12.001Z,-1.00
2022-12-14T18:35:39.028Z,-1.00
2022-12-14T18:38:06.028Z,-1.00
2022-12-14T18:40:33.117Z,-1.20
2022-12-14T18:43:00.323Z,-1.10
2022-12-14T18:45:32.303Z,-1.10
2022-12-14T18:48:01.187Z,-0.90
2022-12-14T18:50:29.842Z,-1.10
2022-12-14T18:52:57.491Z,-1.00
2022-12-14T18:55:31.578Z,-1.00
2022-12-14T18:58:02.052Z,-1.20
2022-12-14T19:00:34.843Z,-1.00
2022-12-14T19:03:04.855Z,-1.30
2022-12-14T19:05:32.649Z,-1.10
2022-12-14T19:08:00.590Z,-1.10
2022-12-14T19:10:32.407Z,-1.20
2022-12-14T19:12:59.702Z,-1.20
2022-12-14T19:15:30.831Z,-1.10
2022-12-14T19:17:58.647Z,-1.20
2022-12-14T19:20:28.349Z,-1.20
2022-12-14T19:22:56.320Z,-1.60
2022-12-14T19:25:25.964Z,-1.40
2022-12-14T19:30:40.832Z,-1.10
2022-12-14T19:33:11.711Z,-1.60
2022-12-14T19:35:42.364Z,-1.30
2022-12-14T19:38:14.647Z,-1.20
2022-12-14T19:40:42.849Z,-1.30
2022-12-14T19:43:09.888Z,-1.20
2022-12-14T19:45:39.717Z,-1.10
2022-12-14T19:48:12.707Z,-1.00
2022-12-14T19:50:40.372Z,-1.10
2022-12-14T19:53:07.806Z,-1.20
2022-12-14T19:55:35.768Z,-0.90
2022-12-14T19:58:02.866Z,-1.20
2022-12-14T20:00:29.944Z,-1.30
2022-12-14T20:02:57.100Z,-1.10
2022-12-14T20:05:24.345Z,-1.10
2022-12-14T20:07:51.329Z,-1.20
2022-12-14T20:10:18.476Z,-1.20
2022-12-14T20:12:45.758Z,-1.20
2022-12-14T20:15:13.722Z,-1.30
2022-12-14T20:17:41.999Z,-1.20
2022-12-14T20:20:10.280Z,-1.20
2022-12-14T20:22:37.437Z,-1.20
2022-12-14T20:25:04.823Z,-1.10
2022-12-14T20:27:36.048Z,-1.20
2022-12-14T20:30:07.215Z,-1.50
2022-12-14T20:32:34.451Z,-1.20
2022-12-14T20:35:01.584Z,-1.20
2022-12-14T20:37:28.818Z,-1.10
2022-12-14T20:40:01.775Z,-1.20
2022-12-14T20:42:29.550Z,-1.30
2022-12-14T20:45:05.263Z,-1.10
2022-12-14T20:47:34.186Z,-1.10
2022-12-14T20:50:01.534Z,-1.10
2022-12-14T20:52:28.669Z,-1.00
2022-12-14T20:54:55.743Z,-0.90
2022-12-14T20:57:22.862Z,-1.40
2022-12-14T20:59:50.063Z,-1.10
2022-12-14T21:02:20.582Z,-0.80
2022-12-14T21:04:47.947Z,-1.20
2022-12-14T21:07:15.623Z,-0.90
2022-12-14T21:09:42.784Z,-1.10
2022-12-14T21:12:22.623Z,-1.10
2022-12-14T21:14:55.816Z,-1.00
2022-12-14T21:17:26.357Z,-0.90
2022-12-14T21:19:53.677Z,-1.20
2022-12-14T21:22:25.034Z,-1.40
2022-12-14T21:25:02.906Z,-1.20
2022-12-14T21:27:31.933Z,-1.10
2022-12-14T21:30:00.635Z,-1.20
2022-12-14T21:32:28.593Z,-1.30
2022-12-14T21:34:55.666Z,-1.30
2022-12-14T21:37:23.321Z,-1.30
2022-12-14T21:39:54.822Z,-1.30
2022-12-14T21:42:25.037Z,-1.30
2022-12-14T21:44:54.399Z,-1.30
2022-12-14T21:47:29.379Z,-1.30
2022-12-14T21:49:57.190Z,-1.30
2022-12-14T21:52:27.638Z,-1.20
2022-12-14T21:54:58.868Z,-1.10
2022-12-14T21:57:49.729Z,-0.90
2022-12-14T22:00:19.102Z,-1.20
2022-12-14T22:02:46.338Z,-1.20
2022-12-14T22:05:13.557Z,-1.10
2022-12-14T22:07:40.716Z,-1.20
2022-12-14T22:10:08.308Z,-1.10
2022-12-14T22:12:35.514Z,-1.20
2022-12-14T22:15:02.555Z,-1.20
2022-12-14T22:17:29.581Z,-1.00
2022-12-14T22:19:56.823Z,-1.20
2022-12-14T22:22:23.837Z,-1.10
2022-12-14T22:24:51.673Z,-1.10
2022-12-14T22:27:20.426Z,-1.10
2022-12-14T22:29:47.522Z,-1.20
2022-12-14T22:32:14.991Z,-1.10
2022-12-14T22:34:42.662Z,-0.80
2022-12-14T22:37:09.988Z,-0.90
2022-12-14T22:39:37.087Z,-1.20
2022-12-14T22:42:04.171Z,-1.20
2022-12-14T22:44:32.184Z,-0.90
2022-12-14T22:46:59.161Z,-0.80
2022-12-14T22:49:26.206Z,-1.20
2022-12-14T22:51:53.574Z,-1.30
2022-12-14T22:54:27.695Z,-1.40
2022-12-14T22:57:00.238Z,-1.30
2022-12-14T22:59:37.562Z,-1.10
2022-12-14T23:02:05.586Z,-1.20
2022-12-14T23:04:33.101Z,-0.90
2022-12-14T23:07:00.180Z,-1.30
2022-12-14T23:09:45.691Z,-1.30
2022-12-14T23:12:31.542Z,-1.00
2022-12-14T23:15:17.020Z,-1.20
2022-12-14T23:18:02.286Z,-0.80
2022-12-14T23:20:47.715Z,-1.20
2022-12-14T23:23:33.300Z,-1.20
2022-12-14T23:26:23.394Z,-1.10
2022-12-14T23:29:08.889Z,-1.10
2022-12-14T23:31:54.373Z,-1.10
2022-12-14T23:34:39.758Z,-1.10
2022-12-14T23:37:25.509Z,-1.10
2022-12-14T23:40:10.799Z,-1.10
2022-12-14T23:42:56.298Z,-1.10
2022-12-14T23:45:41.695Z,-1.10
2022-12-14T23:48:27.053Z,-0.80
2022-12-14T23:51:12.512Z,-0.80
2022-12-14T23:53:59.251Z,-1.00
2022-12-14T23:56:44.644Z,-1.20
2022-12-14T23:59:32.561Z,-1.10
